Aérodrome :
LOGIN :

S'inscrire | Disclaimer

   EN    FR    IT 

 










Légende :    VFR   VFR Marginal   IFR   IFR Intensif   IFR Très Intensif
Visi : 
Plafond : 
>= 8 km
>= 3000ft
5 à 8 km
1000 à 3000 ft
1500m à 5 km
500 à 1000 ft
800 à 1500m
200 à 500 ft
< 800m
< 200 ft
Symboles :   Orages  Brouillard  Fortes neiges  Fortes précipitations  Vent > 20 kt
SIGMETs :   Divers  Orages  Givrage  Turbulence  Onde Orograph.  Cendres Volcan.






- Altitude de l'aérodrome : 354 ft
- Code IATA : OER


ESNO - Örnsköldsvik

DERNIER METAR :
  • 250620Z AUTO 20008KT 150V230 9999 NCD 09/09 Q0999

METARs EXPIRÉS :
  • 250550Z AUTO 20008KT 9999 NCD 09/09 Q0999
  • 250520Z 19007KT CAVOK 08/08 Q0998
  • 250450Z 18007KT CAVOK 08/08 Q0998
  • 250420Z 17007KT CAVOK 08/08 Q0998
  • 250350Z AUTO 18006KT 9999 NCD 08/08 Q0998

TAF TAF ESNO
Valide du 25 à 03h jusqu'au 25 à 07h UTC


250230Z 2503/2507 09008KT 4000 BR OVC004
BECMG 2503/2505 CAVOK



MET'MAP, la Météo Aéronautique d'un coup d'oeil ! - Copyright ORBIFLY Décembre 2007 - Disclaimer

ORBIFLY MET'MAP TEAM :

Programmation & Développement : Alexandra Zaïnal
Sur une idée originale de : Baudouin d'Aumeries
Assistance à la programmation : Marc-Olivier Méhu
Soutien technique & logistique : Manuel Goepfert

Contact : metmap@orbifly.com




SOURCES & CREDITS :

   NOAA